Time;durP1;ratioP1;P1;durP2;ratioP2;P2;SDS_P1;SDS_P2;PMS_P1;PMS_P2;Temp;Humidity;BMP_temperature;BMP_pressure;BME280_temperature;BME280_humidity;BME280_pressure;Samples;Min_cycle;Max_cycle;Signal;HPM_P1;HPM_P2
2022/01/25 00:08:25;;;;;;;11.50;8.65;;;;;;;;;;5073027;28;20201;-73
2022/01/25 00:24:53;;;;;;;14.20;11.65;;;;;;;;;;5082431;28;20707;-74
2022/01/25 00:27:39;;;;;;;15.10;12.60;;;;;;;;;;5077813;28;20200;-74
2022/01/25 00:32:52;;;;;;;15.60;12.70;;;;;;;;;;5071857;28;20217;-73
2022/01/25 00:35:19;;;;;;;17.40;13.82;;;;;;;;;;5073630;28;20202;-73
2022/01/25 00:37:46;;;;;;;15.05;12.93;;;;;;;;;;5075685;28;20198;-73
2022/01/25 00:40:15;;;;;;;16.67;13.75;;;;;;;;;;5070441;28;20230;-74
2022/01/25 00:42:42;;;;;;;14.02;11.90;;;;;;;;;;5074708;28;20712;-74
2022/01/25 00:45:11;;;;;;;16.75;13.05;;;;;;;;;;5082475;28;20279;-73
2022/01/25 00:47:40;;;;;;;19.08;13.65;;;;;;;;;;5072902;28;20684;-73
2022/01/25 00:50:14;;;;;;;17.60;14.50;;;;;;;;;;5081485;28;20197;-73
2022/01/25 00:55:27;;;;;;;19.25;13.48;;;;;;;;;;5070931;28;20618;-72
2022/01/25 00:57:54;;;;;;;18.73;14.40;;;;;;;;;;5080169;28;20597;-73
2022/01/25 01:00:21;;;;;;;17.15;13.05;;;;;;;;;;5072991;28;20190;-73
2022/01/25 01:02:48;;;;;;;16.83;14.52;;;;;;;;;;5087262;28;20693;-75
2022/01/25 01:05:15;;;;;;;19.20;15.25;;;;;;;;;;5079006;28;20711;-74
2022/01/25 01:07:43;;;;;;;19.92;15.48;;;;;;;;;;5074621;28;20650;-74
2022/01/25 01:10:12;;;;;;;18.58;14.75;;;;;;;;;;5081534;28;20221;-75
2022/01/25 01:13:12;;;;;;;17.58;13.15;;;;;;;;;;5070273;28;20273;-73
2022/01/25 01:15:41;;;;;;;19.75;15.38;;;;;;;;;;5076272;28;20197;-73
2022/01/25 01:29:22;;;;;;;18.95;14.43;;;;;;;;;;5069805;28;20243;-73
2022/01/25 01:31:58;;;;;;;19.30;14.70;;;;;;;;;;5081847;28;20201;-75
2022/01/25 01:34:58;;;;;;;16.67;13.88;;;;;;;;;;5076745;28;20208;-75
2022/01/25 01:37:53;;;;;;;18.92;14.68;;;;;;;;;;5082866;28;20201;-75
2022/01/25 01:40:45;;;;;;;19.15;14.95;;;;;;;;;;5084418;28;20316;-72
2022/01/25 01:43:20;;;;;;;20.48;14.48;;;;;;;;;;5074604;28;20221;-72
2022/01/25 01:45:58;;;;;;;17.08;14.73;;;;;;;;;;5082822;28;20290;-73
2022/01/25 01:48:30;;;;;;;19.48;15.25;;;;;;;;;;5092942;28;20204;-75
2022/01/25 01:51:03;;;;;;;19.70;16.73;;;;;;;;;;5088186;28;20284;-74
2022/01/25 01:53:31;;;;;;;22.60;15.55;;;;;;;;;;5075468;28;20190;-73
2022/01/25 01:55:58;;;;;;;19.05;14.90;;;;;;;;;;5088009;28;20322;-73
2022/01/25 01:58:25;;;;;;;18.55;15.13;;;;;;;;;;5086726;28;20416;-73
2022/01/25 02:00:53;;;;;;;17.23;13.93;;;;;;;;;;5072150;28;20251;-73
2022/01/25 02:03:20;;;;;;;19.85;15.57;;;;;;;;;;5073074;28;20217;-73
2022/01/25 02:05:48;;;;;;;24.55;15.50;;;;;;;;;;5072666;28;20650;-73
2022/01/25 02:08:15;;;;;;;17.08;14.27;;;;;;;;;;5073150;28;20194;-73
2022/01/25 02:10:42;;;;;;;20.35;15.98;;;;;;;;;;5076433;28;20198;-73
2022/01/25 02:13:10;;;;;;;18.55;15.90;;;;;;;;;;5081268;28;20198;-73
2022/01/25 02:15:39;;;;;;;19.25;14.60;;;;;;;;;;5082664;28;20202;-75
2022/01/25 02:23:39;;;;;;;20.80;15.90;;;;;;;;;;5073355;28;20347;-74
2022/01/25 02:26:07;;;;;;;18.77;15.15;;;;;;;;;;5074016;28;20233;-74
2022/01/25 02:28:35;;;;;;;20.63;15.80;;;;;;;;;;5074874;28;20202;-72
2022/01/25 02:31:02;;;;;;;19.35;15.02;;;;;;;;;;5089318;28;20205;-74
2022/01/25 02:33:30;;;;;;;19.77;14.50;;;;;;;;;;5087111;28;20198;-73
2022/01/25 02:35:59;;;;;;;20.13;15.65;;;;;;;;;;5075576;28;20558;-73
2022/01/25 02:38:27;;;;;;;16.65;14.75;;;;;;;;;;5078942;28;20202;-75
2022/01/25 02:40:55;;;;;;;16.65;13.95;;;;;;;;;;5073644;28;20666;-74
2022/01/25 02:43:22;;;;;;;22.83;16.92;;;;;;;;;;5073132;28;20336;-73
2022/01/25 02:46:03;;;;;;;20.80;15.50;;;;;;;;;;5086991;28;20277;-73
2022/01/25 02:48:30;;;;;;;20.92;15.70;;;;;;;;;;5083606;28;20204;-73
2022/01/25 02:50:58;;;;;;;19.98;15.43;;;;;;;;;;5072388;28;20201;-74
2022/01/25 02:53:25;;;;;;;18.45;15.30;;;;;;;;;;5072722;28;20190;-74
2022/01/25 02:55:52;;;;;;;22.52;16.10;;;;;;;;;;5092241;28;20193;-73
2022/01/25 02:58:19;;;;;;;19.98;15.25;;;;;;;;;;5078827;28;20198;-73
2022/01/25 03:00:47;;;;;;;20.35;14.60;;;;;;;;;;5087495;28;20202;-73
2022/01/25 03:03:14;;;;;;;20.65;15.60;;;;;;;;;;5072935;28;20681;-75
2022/01/25 03:05:42;;;;;;;21.63;15.40;;;;;;;;;;5079222;28;20225;-78
2022/01/25 03:08:12;;;;;;;21.00;15.60;;;;;;;;;;5089827;28;20300;-77
2022/01/25 03:10:41;;;;;;;19.67;15.65;;;;;;;;;;5084444;28;20241;-78
2022/01/25 03:13:13;;;;;;;19.92;15.38;;;;;;;;;;5070676;28;20203;-78
2022/01/25 03:15:57;;;;;;;21.65;15.43;;;;;;;;;;5071077;28;20273;-78
2022/01/25 03:18:38;;;;;;;20.23;13.77;;;;;;;;;;5077301;28;20639;-78
2022/01/25 03:21:17;;;;;;;21.52;13.65;;;;;;;;;;5076648;28;20250;-78
2022/01/25 03:23:46;;;;;;;18.90;14.55;;;;;;;;;;5073224;28;20240;-77
2022/01/25 03:26:13;;;;;;;19.52;15.48;;;;;;;;;;5093690;28;20200;-79
2022/01/25 03:28:40;;;;;;;20.60;14.80;;;;;;;;;;5089631;28;20189;-79
2022/01/25 03:31:07;;;;;;;17.75;14.90;;;;;;;;;;5080606;28;20600;-79
2022/01/25 03:33:34;;;;;;;17.75;13.80;;;;;;;;;;5082330;28;20194;-80
2022/01/25 03:36:02;;;;;;;19.55;14.85;;;;;;;;;;5078642;28;20610;-80
2022/01/25 03:38:29;;;;;;;19.08;13.50;;;;;;;;;;5082822;28;20248;-78
2022/01/25 03:40:57;;;;;;;27.83;15.73;;;;;;;;;;5080526;28;20653;-77
2022/01/25 03:43:24;;;;;;;18.52;14.82;;;;;;;;;;5074176;28;20921;-78
2022/01/25 03:46:01;;;;;;;19.38;15.23;;;;;;;;;;5081455;28;20705;-77
2022/01/25 03:51:12;;;;;;;20.52;16.05;;;;;;;;;;5072075;28;20304;-78
2022/01/25 03:53:40;;;;;;;16.52;14.15;;;;;;;;;;5080883;28;20569;-77
2022/01/25 03:56:08;;;;;;;17.40;14.02;;;;;;;;;;5092178;28;20193;-78
2022/01/25 03:58:35;;;;;;;20.63;14.20;;;;;;;;;;5073812;28;20198;-78
2022/01/25 04:01:02;;;;;;;18.65;14.35;;;;;;;;;;5088353;28;20201;-75
2022/01/25 04:03:34;;;;;;;19.70;15.38;;;;;;;;;;5078105;28;20209;-75
2022/01/25 04:06:02;;;;;;;24.63;16.30;;;;;;;;;;5085093;28;20716;-75
2022/01/25 04:08:29;;;;;;;16.90;13.38;;;;;;;;;;5073779;28;20649;-76
2022/01/25 04:10:56;;;;;;;18.15;14.20;;;;;;;;;;5084304;28;20603;-76
2022/01/25 04:13:24;;;;;;;18.27;14.50;;;;;;;;;;5082193;28;20202;-75
2022/01/25 04:15:54;;;;;;;19.15;14.10;;;;;;;;;;5088499;28;20318;-74
2022/01/25 04:18:31;;;;;;;18.25;12.98;;;;;;;;;;5085283;28;20604;-74
2022/01/25 04:21:09;;;;;;;18.02;14.30;;;;;;;;;;5071637;28;20638;-76
2022/01/25 04:26:21;;;;;;;21.08;15.15;;;;;;;;;;5079661;28;20197;-75
2022/01/25 04:28:49;;;;;;;19.60;15.38;;;;;;;;;;5074018;28;20256;-74
2022/01/25 04:31:19;;;;;;;17.70;12.90;;;;;;;;;;5078933;28;20599;-75
2022/01/25 04:34:06;;;;;;;21.30;14.82;;;;;;;;;;5077957;28;20578;-74
2022/01/25 04:36:56;;;;;;;21.13;15.95;;;;;;;;;;5070754;28;20701;-75
2022/01/25 04:50:46;;;;;;;25.70;16.58;;;;;;;;;;5081192;28;20294;-76
2022/01/25 04:53:19;;;;;;;19.05;13.70;;;;;;;;;;5073817;28;20197;-75
2022/01/25 04:55:53;;;;;;;21.98;15.52;;;;;;;;;;5071353;28;20783;-76
2022/01/25 04:58:26;;;;;;;21.35;15.95;;;;;;;;;;5074570;28;20646;-76
2022/01/25 05:00:54;;;;;;;19.83;13.70;;;;;;;;;;5076334;28;20201;-76
2022/01/25 05:03:26;;;;;;;25.85;15.60;;;;;;;;;;5084009;28;20696;-76
2022/01/25 05:05:58;;;;;;;20.48;15.10;;;;;;;;;;5083970;28;20212;-76
2022/01/25 05:08:34;;;;;;;20.80;15.27;;;;;;;;;;5087980;28;20225;-76
2022/01/25 05:11:06;;;;;;;23.20;16.95;;;;;;;;;;5088709;28;20299;-77
2022/01/25 05:13:43;;;;;;;21.15;14.35;;;;;;;;;;5077845;28;20190;-76
2022/01/25 05:16:27;;;;;;;20.60;14.88;;;;;;;;;;5090809;28;20197;-76
2022/01/25 05:19:03;;;;;;;24.58;13.90;;;;;;;;;;5074860;28;20202;-75
2022/01/25 05:24:15;;;;;;;19.98;13.70;;;;;;;;;;5093006;28;20224;-75
2022/01/25 05:26:42;;;;;;;22.67;14.82;;;;;;;;;;5082937;28;20198;-75
2022/01/25 05:29:09;;;;;;;22.05;14.13;;;;;;;;;;5085649;28;20229;-76
2022/01/25 05:31:38;;;;;;;25.23;15.57;;;;;;;;;;5084634;28;20209;-75
2022/01/25 05:34:07;;;;;;;22.15;15.80;;;;;;;;;;5078509;28;20540;-74
2022/01/25 05:36:34;;;;;;;22.33;15.65;;;;;;;;;;5082733;28;20249;-74
2022/01/25 05:39:09;;;;;;;19.95;14.40;;;;;;;;;;5084613;28;20610;-75
2022/01/25 05:41:36;;;;;;;20.33;14.38;;;;;;;;;;5088907;28;20331;-76
2022/01/25 05:44:26;;;;;;;22.63;14.82;;;;;;;;;;5081138;28;20573;-77
2022/01/25 05:47:05;;;;;;;19.80;14.18;;;;;;;;;;5087185;28;20207;-77
2022/01/25 05:49:33;;;;;;;22.35;15.82;;;;;;;;;;5081564;28;20359;-76
2022/01/25 05:52:00;;;;;;;24.23;17.00;;;;;;;;;;5082311;28;20598;-77
2022/01/25 05:54:27;;;;;;;24.60;15.13;;;;;;;;;;5080624;28;20557;-77
2022/01/25 05:56:54;;;;;;;22.10;16.30;;;;;;;;;;5078029;28;20198;-77
2022/01/25 05:59:21;;;;;;;23.70;16.05;;;;;;;;;;5082002;28;20190;-76
2022/01/25 06:01:49;;;;;;;21.65;15.63;;;;;;;;;;5077513;28;20696;-77
2022/01/25 06:04:17;;;;;;;25.17;16.00;;;;;;;;;;5088405;28;20256;-76
2022/01/25 06:06:44;;;;;;;20.85;14.40;;;;;;;;;;5085899;28;20291;-77
2022/01/25 06:09:11;;;;;;;20.92;15.00;;;;;;;;;;5073562;28;20232;-77
2022/01/25 06:11:38;;;;;;;23.40;15.63;;;;;;;;;;5075137;28;20194;-77
2022/01/25 06:14:06;;;;;;;23.50;15.70;;;;;;;;;;5080130;28;20191;-76
2022/01/25 06:16:33;;;;;;;21.00;15.63;;;;;;;;;;5074132;28;20193;-76
2022/01/25 06:19:00;;;;;;;24.13;15.82;;;;;;;;;;5073085;28;20205;-76
2022/01/25 06:21:29;;;;;;;25.85;16.35;;;;;;;;;;5076954;28;20202;-76
2022/01/25 06:23:56;;;;;;;25.02;15.90;;;;;;;;;;5083932;28;20217;-76
2022/01/25 06:26:23;;;;;;;27.35;17.58;;;;;;;;;;5081461;28;20335;-76
2022/01/25 06:28:50;;;;;;;21.13;14.80;;;;;;;;;;5082499;28;20202;-77
2022/01/25 06:31:18;;;;;;;18.88;13.73;;;;;;;;;;5097844;28;20201;-76
2022/01/25 06:33:45;;;;;;;22.38;14.30;;;;;;;;;;5109190;28;20281;-77
2022/01/25 06:36:12;;;;;;;20.52;14.30;;;;;;;;;;5095744;28;20194;-77
2022/01/25 06:38:41;;;;;;;22.40;13.80;;;;;;;;;;5097940;28;20658;-77
2022/01/25 06:41:09;;;;;;;22.65;14.60;;;;;;;;;;5097169;28;20525;-77
2022/01/25 06:43:36;;;;;;;25.08;14.98;;;;;;;;;;5087831;28;20222;-76
2022/01/25 06:46:04;;;;;;;20.50;13.20;;;;;;;;;;5087986;28;20210;-77
2022/01/25 06:48:31;;;;;;;21.65;14.60;;;;;;;;;;5095299;28;20205;-77
2022/01/25 06:50:59;;;;;;;24.42;15.18;;;;;;;;;;5094693;28;20293;-77
2022/01/25 06:53:26;;;;;;;24.15;15.13;;;;;;;;;;5101895;28;20602;-77
2022/01/25 06:55:54;;;;;;;19.27;13.45;;;;;;;;;;5100793;28;20219;-77
2022/01/25 06:58:21;;;;;;;24.10;15.43;;;;;;;;;;5092846;28;20623;-77
2022/01/25 07:00:48;;;;;;;22.67;15.13;;;;;;;;;;5104772;28;20197;-77
2022/01/25 07:03:15;;;;;;;22.92;14.27;;;;;;;;;;5097391;28;20202;-77
2022/01/25 07:05:42;;;;;;;21.63;14.30;;;;;;;;;;5080326;28;20224;-76
2022/01/25 07:08:09;;;;;;;22.15;15.43;;;;;;;;;;5081885;28;20255;-76
2022/01/25 07:10:36;;;;;;;23.25;14.27;;;;;;;;;;5085631;28;20193;-76
2022/01/25 07:13:05;;;;;;;20.58;13.63;;;;;;;;;;5091836;28;20705;-76
2022/01/25 07:15:32;;;;;;;22.30;15.00;;;;;;;;;;5079755;28;20699;-77
2022/01/25 07:17:59;;;;;;;17.27;12.15;;;;;;;;;;5081362;28;20691;-76
2022/01/25 07:20:26;;;;;;;23.60;15.75;;;;;;;;;;5081808;28;21287;-77
2022/01/25 07:22:53;;;;;;;25.00;16.58;;;;;;;;;;5088941;28;20288;-76
2022/01/25 07:25:21;;;;;;;23.02;14.50;;;;;;;;;;5087030;28;20225;-77
2022/01/25 07:27:48;;;;;;;19.63;13.60;;;;;;;;;;5088536;28;20251;-78
2022/01/25 07:30:17;;;;;;;19.50;15.05;;;;;;;;;;5075277;28;20198;-77
2022/01/25 07:32:44;;;;;;;21.10;13.50;;;;;;;;;;5088938;28;20213;-77
2022/01/25 07:35:11;;;;;;;20.85;14.70;;;;;;;;;;5087466;28;20190;-77
2022/01/25 07:37:38;;;;;;;19.27;13.68;;;;;;;;;;5074525;28;20190;-78
2022/01/25 07:40:06;;;;;;;22.17;14.70;;;;;;;;;;5089419;28;20648;-78
2022/01/25 07:42:36;;;;;;;22.35;13.38;;;;;;;;;;5083813;28;20213;-78
2022/01/25 07:45:07;;;;;;;23.38;14.18;;;;;;;;;;5079196;28;20683;-78
2022/01/25 07:47:35;;;;;;;19.83;14.55;;;;;;;;;;5084903;28;20252;-78
2022/01/25 07:50:02;;;;;;;18.23;12.65;;;;;;;;;;5081490;28;20251;-77
2022/01/25 07:52:29;;;;;;;18.38;13.23;;;;;;;;;;5075818;28;20256;-78
2022/01/25 07:54:56;;;;;;;19.63;14.07;;;;;;;;;;5087356;28;20202;-78
2022/01/25 07:57:23;;;;;;;27.67;16.92;;;;;;;;;;5088753;28;20680;-77
2022/01/25 07:59:50;;;;;;;22.38;16.30;;;;;;;;;;5083417;28;20574;-77
2022/01/25 08:02:18;;;;;;;25.98;14.57;;;;;;;;;;5078002;28;20243;-77
2022/01/25 08:04:46;;;;;;;20.85;13.25;;;;;;;;;;5077929;28;20217;-78
2022/01/25 08:07:14;;;;;;;29.83;16.08;;;;;;;;;;5077314;28;20209;-78
2022/01/25 08:09:41;;;;;;;19.92;15.05;;;;;;;;;;5080864;28;20196;-78
2022/01/25 08:12:09;;;;;;;21.67;14.77;;;;;;;;;;5079341;28;20448;-76
2022/01/25 08:14:37;;;;;;;22.65;14.50;;;;;;;;;;5075719;28;20194;-74
2022/01/25 08:17:05;;;;;;;22.95;14.35;;;;;;;;;;5076143;28;20254;-77
2022/01/25 08:19:33;;;;;;;20.58;13.48;;;;;;;;;;5080589;28;20195;-76
2022/01/25 08:22:01;;;;;;;21.65;13.52;;;;;;;;;;5082275;28;20546;-77
2022/01/25 08:24:29;;;;;;;24.30;15.00;;;;;;;;;;5080155;28;20298;-80
2022/01/25 08:26:57;;;;;;;21.65;13.25;;;;;;;;;;5072347;28;20309;-76
2022/01/25 08:29:24;;;;;;;21.52;15.18;;;;;;;;;;5072883;28;20535;-76
2022/01/25 08:31:51;;;;;;;20.73;14.63;;;;;;;;;;5071770;28;20222;-77
2022/01/25 08:34:18;;;;;;;22.70;14.05;;;;;;;;;;5069430;28;20204;-78
2022/01/25 08:36:45;;;;;;;22.45;14.38;;;;;;;;;;5070119;28;20213;-76
2022/01/25 08:39:13;;;;;;;22.17;14.27;;;;;;;;;;5073034;28;20193;-77
2022/01/25 08:41:41;;;;;;;23.65;14.88;;;;;;;;;;5071157;28;20218;-77
2022/01/25 08:44:08;;;;;;;23.88;15.10;;;;;;;;;;5070451;28;20225;-76
2022/01/25 08:46:35;;;;;;;20.05;13.27;;;;;;;;;;5072842;28;20875;-76
2022/01/25 08:49:02;;;;;;;20.05;14.10;;;;;;;;;;5071431;28;20279;-77
2022/01/25 08:51:29;;;;;;;22.02;14.88;;;;;;;;;;5071243;28;20787;-77
2022/01/25 08:53:56;;;;;;;21.65;14.18;;;;;;;;;;5071680;28;20198;-77
2022/01/25 08:56:25;;;;;;;20.30;14.25;;;;;;;;;;5068138;28;20186;-76
2022/01/25 08:58:52;;;;;;;21.02;14.77;;;;;;;;;;5069117;28;20890;-75
2022/01/25 09:01:19;;;;;;;23.58;13.32;;;;;;;;;;5079784;28;20200;-77
2022/01/25 09:03:46;;;;;;;24.40;15.48;;;;;;;;;;5083800;28;20190;-78
2022/01/25 09:06:13;;;;;;;23.92;14.35;;;;;;;;;;5088844;28;20217;-77
2022/01/25 09:08:41;;;;;;;18.85;13.52;;;;;;;;;;5083547;28;20186;-78
2022/01/25 09:11:08;;;;;;;19.48;12.60;;;;;;;;;;5082594;28;20200;-78
2022/01/25 09:13:36;;;;;;;20.92;13.45;;;;;;;;;;5078765;28;20190;-76
2022/01/25 09:16:04;;;;;;;23.65;15.00;;;;;;;;;;5075741;28;20652;-77
2022/01/25 09:18:32;;;;;;;19.08;12.98;;;;;;;;;;5070603;28;20240;-77
2022/01/25 09:20:59;;;;;;;24.20;15.38;;;;;;;;;;5069725;28;20716;-76
2022/01/25 09:23:27;;;;;;;23.67;14.25;;;;;;;;;;5071139;28;20210;-77
2022/01/25 09:25:56;;;;;;;24.90;15.60;;;;;;;;;;5085081;28;20225;-77
2022/01/25 09:28:23;;;;;;;26.80;14.88;;;;;;;;;;5076543;28;20281;-78
2022/01/25 09:30:51;;;;;;;22.65;15.57;;;;;;;;;;5085238;28;20201;-78
2022/01/25 09:33:18;;;;;;;23.02;14.05;;;;;;;;;;5076215;28;20194;-77
2022/01/25 09:35:46;;;;;;;24.08;14.48;;;;;;;;;;5080459;28;20271;-78
2022/01/25 09:38:13;;;;;;;24.30;13.95;;;;;;;;;;5089917;28;20196;-78
2022/01/25 09:40:40;;;;;;;19.15;12.50;;;;;;;;;;5085588;28;20202;-77
2022/01/25 09:43:08;;;;;;;23.45;14.30;;;;;;;;;;5077612;28;20224;-77
2022/01/25 09:45:35;;;;;;;22.25;14.20;;;;;;;;;;5083905;28;20232;-75
2022/01/25 09:48:04;;;;;;;20.23;13.63;;;;;;;;;;5078543;28;20684;-75
2022/01/25 09:50:31;;;;;;;19.67;12.90;;;;;;;;;;5083945;28;20201;-75
2022/01/25 09:53:00;;;;;;;22.45;13.32;;;;;;;;;;5075954;28;20681;-75
2022/01/25 09:55:28;;;;;;;26.17;14.27;;;;;;;;;;5084650;28;20277;-76
2022/01/25 09:57:55;;;;;;;23.10;12.55;;;;;;;;;;5084976;28;20194;-75
2022/01/25 10:00:23;;;;;;;21.60;13.27;;;;;;;;;;5083014;28;20250;-75
2022/01/25 10:02:56;;;;;;;25.00;14.60;;;;;;;;;;5091781;28;20576;-75
2022/01/25 10:05:29;;;;;;;20.35;12.90;;;;;;;;;;5079921;28;20217;-76
2022/01/25 10:07:57;;;;;;;21.85;12.75;;;;;;;;;;5079696;28;20213;-75
2022/01/25 10:10:25;;;;;;;19.88;14.05;;;;;;;;;;5081677;28;20663;-75
2022/01/25 10:12:52;;;;;;;22.75;14.68;;;;;;;;;;5081465;28;20248;-74
2022/01/25 10:15:19;;;;;;;25.08;14.70;;;;;;;;;;5081714;28;20205;-76
2022/01/25 10:17:46;;;;;;;28.30;16.52;;;;;;;;;;5092830;28;20719;-75
2022/01/25 10:20:28;;;;;;;18.70;12.35;;;;;;;;;;5071199;28;20221;-74
2022/01/25 10:22:59;;;;;;;19.50;12.93;;;;;;;;;;5082413;28;20193;-75
2022/01/25 10:25:33;;;;;;;21.17;14.50;;;;;;;;;;5085284;28;20218;-75
2022/01/25 10:28:00;;;;;;;21.63;14.32;;;;;;;;;;5084077;28;20703;-75
2022/01/25 10:30:30;;;;;;;19.90;13.50;;;;;;;;;;5077939;28;20291;-75
2022/01/25 10:33:00;;;;;;;23.92;14.15;;;;;;;;;;5083571;28;20699;-75
2022/01/25 10:35:29;;;;;;;20.45;13.02;;;;;;;;;;5081080;28;20302;-75
2022/01/25 10:37:56;;;;;;;24.85;15.48;;;;;;;;;;5081833;28;20208;-75
2022/01/25 10:40:35;;;;;;;25.23;14.00;;;;;;;;;;5080381;28;20201;-75
2022/01/25 10:43:02;;;;;;;26.35;14.40;;;;;;;;;;5074671;28;20233;-75
2022/01/25 10:45:29;;;;;;;22.60;15.32;;;;;;;;;;5083060;28;20233;-74
2022/01/25 10:47:56;;;;;;;21.23;15.00;;;;;;;;;;5085990;28;20784;-74
2022/01/25 10:50:25;;;;;;;24.35;14.38;;;;;;;;;;5082768;28;20205;-74
2022/01/25 10:53:05;;;;;;;24.50;16.48;;;;;;;;;;5074133;28;20208;-74
2022/01/25 10:55:36;;;;;;;22.85;13.77;;;;;;;;;;5069311;28;20243;-74
2022/01/25 10:58:04;;;;;;;21.02;15.10;;;;;;;;;;5070969;28;20305;-76
2022/01/25 11:00:33;;;;;;;20.38;12.98;;;;;;;;;;5077133;28;20216;-74
2022/01/25 11:03:00;;;;;;;23.27;14.60;;;;;;;;;;5086516;28;20201;-75
2022/01/25 11:05:27;;;;;;;21.30;12.90;;;;;;;;;;5083400;28;20736;-74
2022/01/25 11:07:54;;;;;;;21.17;13.27;;;;;;;;;;5084642;28;20201;-74
2022/01/25 11:10:23;;;;;;;25.33;14.07;;;;;;;;;;5078944;28;20274;-75
2022/01/25 11:13:02;;;;;;;23.77;14.77;;;;;;;;;;5081701;28;20201;-74
2022/01/25 11:15:29;;;;;;;25.67;15.82;;;;;;;;;;5077904;28;20204;-74
2022/01/25 11:17:56;;;;;;;20.77;13.65;;;;;;;;;;5089385;28;20205;-74
2022/01/25 11:20:23;;;;;;;22.38;14.52;;;;;;;;;;5082442;28;20209;-74
2022/01/25 11:22:50;;;;;;;21.23;13.93;;;;;;;;;;5080426;28;20205;-74
2022/01/25 11:25:19;;;;;;;21.13;13.35;;;;;;;;;;5075108;28;20677;-75
2022/01/25 11:27:50;;;;;;;21.17;14.27;;;;;;;;;;5078577;28;20206;-75
2022/01/25 11:30:19;;;;;;;20.13;13.38;;;;;;;;;;5080100;28;20197;-75
2022/01/25 11:32:47;;;;;;;26.20;16.05;;;;;;;;;;5082298;28;20205;-74
2022/01/25 11:35:16;;;;;;;21.13;15.15;;;;;;;;;;5067390;28;20194;-75
2022/01/25 11:37:44;;;;;;;20.50;12.65;;;;;;;;;;5067703;28;20213;-75
2022/01/25 11:40:25;;;;;;;19.90;14.20;;;;;;;;;;5083062;28;20502;-74
2022/01/25 11:42:54;;;;;;;20.27;13.43;;;;;;;;;;5073669;28;20201;-74
2022/01/25 11:45:22;;;;;;;22.65;13.98;;;;;;;;;;5081528;28;20703;-73
2022/01/25 11:47:50;;;;;;;19.50;12.15;;;;;;;;;;5080383;28;20236;-75
2022/01/25 11:50:17;;;;;;;22.55;14.38;;;;;;;;;;5083501;28;20204;-74
2022/01/25 11:52:48;;;;;;;24.98;14.63;;;;;;;;;;5080948;28;20209;-76
2022/01/25 11:55:23;;;;;;;22.92;13.85;;;;;;;;;;5078292;28;20604;-75
2022/01/25 11:57:51;;;;;;;22.92;13.30;;;;;;;;;;5073705;28;20611;-74
2022/01/25 12:00:21;;;;;;;18.73;13.05;;;;;;;;;;5082619;28;20205;-74
2022/01/25 12:02:50;;;;;;;23.65;14.25;;;;;;;;;;5085791;28;20213;-74
2022/01/25 12:05:25;;;;;;;21.10;13.02;;;;;;;;;;5070848;28;20341;-75
2022/01/25 12:08:08;;;;;;;21.17;13.25;;;;;;;;;;5081484;28;20201;-76
2022/01/25 12:10:38;;;;;;;25.27;14.27;;;;;;;;;;5073958;28;20197;-75
2022/01/25 12:13:15;;;;;;;20.42;13.57;;;;;;;;;;5088281;28;20572;-74
2022/01/25 12:15:44;;;;;;;19.35;11.88;;;;;;;;;;5082773;28;20201;-74
2022/01/25 12:18:12;;;;;;;18.00;11.57;;;;;;;;;;5069258;28;20190;-74
2022/01/25 12:20:49;;;;;;;20.77;12.60;;;;;;;;;;5067484;28;20202;-77
2022/01/25 12:23:19;;;;;;;27.60;14.30;;;;;;;;;;5078374;28;20335;-75
2022/01/25 12:25:51;;;;;;;20.40;11.98;;;;;;;;;;5072066;28;20213;-75
2022/01/25 12:28:27;;;;;;;18.90;11.70;;;;;;;;;;5080085;28;20423;-77
2022/01/25 12:31:00;;;;;;;19.67;13.02;;;;;;;;;;5078489;28;20212;-75
2022/01/25 12:33:29;;;;;;;21.65;13.55;;;;;;;;;;5076604;28;20193;-77
2022/01/25 12:36:03;;;;;;;17.38;11.60;;;;;;;;;;5079382;28;20201;-78
2022/01/25 12:38:41;;;;;;;20.40;12.55;;;;;;;;;;5086009;28;20564;-80
2022/01/25 12:41:08;;;;;;;18.23;13.60;;;;;;;;;;5075541;28;20311;-76
2022/01/25 12:43:38;;;;;;;20.83;14.50;;;;;;;;;;5069143;28;20201;-77
2022/01/25 12:46:08;;;;;;;18.40;12.18;;;;;;;;;;5079957;28;20627;-76
2022/01/25 12:48:36;;;;;;;22.83;11.45;;;;;;;;;;5078978;28;20205;-75
2022/01/25 12:51:05;;;;;;;20.45;12.40;;;;;;;;;;5071611;28;20202;-75
2022/01/25 12:53:33;;;;;;;21.67;13.85;;;;;;;;;;5071689;28;20513;-78
2022/01/25 12:56:01;;;;;;;22.83;13.40;;;;;;;;;;5087044;28;20292;-77
2022/01/25 12:58:30;;;;;;;18.15;12.13;;;;;;;;;;5076485;28;20202;-73
2022/01/25 13:00:58;;;;;;;21.17;14.13;;;;;;;;;;5085519;28;20275;-76
2022/01/25 13:03:31;;;;;;;19.60;12.70;;;;;;;;;;5083193;28;20197;-76
2022/01/25 13:06:00;;;;;;;21.23;13.65;;;;;;;;;;5066331;28;20233;-76
2022/01/25 13:08:29;;;;;;;23.73;14.75;;;;;;;;;;5066248;28;20462;-76
2022/01/25 13:11:16;;;;;;;26.33;16.17;;;;;;;;;;5079361;28;20197;-76
2022/01/25 13:13:57;;;;;;;24.38;15.10;;;;;;;;;;5072126;28;20193;-76
2022/01/25 13:16:44;;;;;;;22.42;14.80;;;;;;;;;;5087713;28;20568;-76
2022/01/25 13:19:13;;;;;;;25.42;16.27;;;;;;;;;;5067368;28;20198;-74
2022/01/25 13:21:42;;;;;;;25.70;13.20;;;;;;;;;;5079304;28;20668;-74
2022/01/25 13:24:10;;;;;;;25.92;14.48;;;;;;;;;;5086655;28;20208;-74
2022/01/25 13:26:39;;;;;;;28.00;17.50;;;;;;;;;;5085207;28;20726;-76
2022/01/25 13:31:52;;;;;;;24.20;13.82;;;;;;;;;;5081921;28;20256;-75
2022/01/25 13:34:24;;;;;;;23.90;14.60;;;;;;;;;;5083015;28;20282;-76
2022/01/25 13:36:51;;;;;;;20.88;14.90;;;;;;;;;;5077377;28;20201;-76
2022/01/25 13:39:20;;;;;;;25.20;15.85;;;;;;;;;;5082069;28;20669;-76
2022/01/25 13:41:53;;;;;;;23.30;14.63;;;;;;;;;;5086530;28;20202;-76
2022/01/25 13:47:11;;;;;;;22.65;15.13;;;;;;;;;;5081421;28;20351;-76
2022/01/25 13:49:40;;;;;;;20.52;13.45;;;;;;;;;;5077014;28;20481;-76
2022/01/25 13:52:07;;;;;;;23.27;14.88;;;;;;;;;;5070514;28;20205;-79
2022/01/25 13:54:35;;;;;;;20.55;13.68;;;;;;;;;;5089087;28;20201;-76
2022/01/25 13:57:09;;;;;;;18.50;12.75;;;;;;;;;;5088782;28;20193;-76
2022/01/25 13:59:37;;;;;;;20.73;12.77;;;;;;;;;;5082428;28;20211;-76
2022/01/25 14:02:04;;;;;;;22.83;13.57;;;;;;;;;;5082577;28;20198;-75
2022/01/25 14:04:33;;;;;;;22.33;12.85;;;;;;;;;;5071750;28;20309;-76
2022/01/25 14:07:03;;;;;;;19.02;12.73;;;;;;;;;;5075070;28;20735;-76
2022/01/25 14:09:33;;;;;;;20.42;12.77;;;;;;;;;;5070704;28;20237;-76
2022/01/25 14:23:23;;;;;;;22.48;12.25;;;;;;;;;;5070933;28;20730;-77
2022/01/25 14:25:51;;;;;;;23.13;11.90;;;;;;;;;;5074569;28;20229;-76
2022/01/25 14:28:21;;;;;;;20.58;13.65;;;;;;;;;;5089660;28;20247;-75
2022/01/25 14:30:49;;;;;;;18.23;12.45;;;;;;;;;;5090495;28;20726;-76
2022/01/25 14:33:18;;;;;;;22.63;13.80;;;;;;;;;;5079289;28;20205;-76
2022/01/25 14:35:47;;;;;;;18.38;11.25;;;;;;;;;;5088847;28;20197;-75
2022/01/25 14:38:20;;;;;;;22.35;13.10;;;;;;;;;;5086674;28;20205;-74
2022/01/25 14:40:58;;;;;;;18.25;12.55;;;;;;;;;;5080189;28;20194;-74
2022/01/25 14:43:26;;;;;;;22.02;14.00;;;;;;;;;;5078726;28;20204;-76
2022/01/25 14:45:59;;;;;;;19.58;12.48;;;;;;;;;;5080009;28;20241;-78
2022/01/25 14:48:26;;;;;;;19.75;13.52;;;;;;;;;;5082847;28;20894;-77
2022/01/25 14:50:59;;;;;;;20.80;13.07;;;;;;;;;;5074850;28;20980;-77
2022/01/25 14:53:27;;;;;;;23.33;13.50;;;;;;;;;;5084548;28;20757;-77
2022/01/25 14:55:55;;;;;;;19.02;12.38;;;;;;;;;;5084193;28;20206;-76
2022/01/25 14:59:22;;;;;;;19.33;12.23;;;;;;;;;;5081076;28;20197;-75
2022/01/25 15:01:11;;;;;;;16.98;12.52;;;;;;;;;;5081783;28;20198;-74
2022/01/25 15:03:38;;;;;;;19.67;12.50;;;;;;;;;;5080355;28;20250;-75
2022/01/25 15:06:06;;;;;;;23.95;14.25;;;;;;;;;;5076972;28;20229;-74
2022/01/25 15:08:34;;;;;;;20.70;13.18;;;;;;;;;;5086067;28;20225;-74
2022/01/25 15:11:01;;;;;;;20.90;12.75;;;;;;;;;;5080067;28;20198;-76
2022/01/25 15:13:30;;;;;;;18.40;12.82;;;;;;;;;;5087251;28;20197;-76
2022/01/25 15:15:58;;;;;;;18.88;11.60;;;;;;;;;;5086201;28;20197;-75
2022/01/25 15:18:26;;;;;;;20.35;13.95;;;;;;;;;;5090975;28;20185;-79
2022/01/25 15:20:53;;;;;;;18.63;12.40;;;;;;;;;;5074397;28;20202;-75
2022/01/25 15:23:22;;;;;;;20.65;12.25;;;;;;;;;;5086771;28;20197;-75
2022/01/25 15:25:54;;;;;;;21.60;13.60;;;;;;;;;;5086607;28;20213;-76
2022/01/25 15:28:21;;;;;;;16.02;11.85;;;;;;;;;;5077489;28;20194;-76
2022/01/25 15:30:48;;;;;;;18.65;12.38;;;;;;;;;;5081535;28;20258;-78
2022/01/25 15:33:15;;;;;;;25.92;16.10;;;;;;;;;;5073196;28;20532;-76
2022/01/25 15:35:43;;;;;;;20.88;13.10;;;;;;;;;;5088893;28;20209;-76
2022/01/25 15:38:10;;;;;;;20.67;14.07;;;;;;;;;;5084510;28;20251;-75
2022/01/25 15:40:37;;;;;;;22.08;13.80;;;;;;;;;;5081862;28;20553;-75
2022/01/25 15:43:07;;;;;;;16.65;12.98;;;;;;;;;;5076339;28;20248;-75
2022/01/25 15:45:54;;;;;;;23.65;12.70;;;;;;;;;;5076095;28;20262;-74
2022/01/25 15:48:21;;;;;;;21.05;13.55;;;;;;;;;;5076639;28;20229;-74
2022/01/25 15:50:48;;;;;;;18.25;13.27;;;;;;;;;;5082106;28;20561;-75